Time;durP1;ratioP1;P1;durP2;ratioP2;P2;SDS_P1;SDS_P2;PMS_P1;PMS_P2;Temp;Humidity;BMP_temperature;BMP_pressure;BME280_temperature;BME280_humidity;BME280_pressure;Samples;Min_cycle;Max_cycle;Signal;HPM_P1;HPM_P2
2023/03/16 00:01:10;;;;;;;;;;;;;;;11.36;72.23;101608.28;4990715;28;19920;-48
2023/03/16 00:03:36;;;;;;;;;;;;;;;11.23;72.70;101614.25;4989766;28;19918;-51
2023/03/16 00:06:02;;;;;;;;;;;;;;;11.23;73.29;101616.94;4983808;28;19926;-51
2023/03/16 00:08:27;;;;;;;;;;;;;;;11.22;73.74;101617.13;4988388;28;19914;-52
2023/03/16 00:10:53;;;;;;;;;;;;;;;11.26;74.29;101613.88;4988442;28;19973;-53
2023/03/16 00:13:23;;;;;;;;;;;;;;;11.47;73.20;101623.06;4986183;28;19918;-52
2023/03/16 00:15:53;;;;;;;;;;;;;;;11.23;75.38;101618.78;4984583;28;19924;-54
2023/03/16 00:18:18;;;;;;;;;;;;;;;11.09;76.11;101610.53;4986550;28;19985;-53
2023/03/16 00:20:44;;;;;;;;;;;;;;;11.16;77.32;101600.75;4986799;28;19914;-55
2023/03/16 00:23:09;;;;;;;;;;;;;;;11.40;76.18;101598.03;4988779;28;19939;-53
2023/03/16 00:25:34;;;;;;;;;;;;;;;11.31;77.18;101606.16;4991442;28;19941;-54
2023/03/16 00:28:02;;;;;;;;;;;;;;;11.25;77.61;101598.84;4986939;28;19920;-53
2023/03/16 00:30:31;;;;;;;;;;;;;;;11.28;77.19;101600.31;4991883;28;19914;-52
2023/03/16 00:32:57;;;;;;;;;;;;;;;10.91;81.07;101594.78;4982266;28;20389;-50
2023/03/16 00:35:23;;;;;;;;;;;;;;;11.03;81.35;101590.66;4986872;28;19914;-49
2023/03/16 00:37:48;;;;;;;;;;;;;;;10.96;81.29;101578.19;4985932;28;19940;-53
2023/03/16 00:40:14;;;;;;;;;;;;;;;11.00;82.33;101574.94;5004375;28;19914;-54
2023/03/16 00:42:41;;;;;;;;;;;;;;;11.16;82.16;101579.31;4988727;28;19914;-52
2023/03/16 00:45:06;;;;;;;;;;;;;;;11.11;82.18;101583.59;4994213;28;19985;-50
2023/03/16 00:47:33;;;;;;;;;;;;;;;11.16;82.08;101578.50;4980823;28;19922;-54
2023/03/16 00:49:59;;;;;;;;;;;;;;;11.07;83.32;101575.06;4989886;28;19929;-49
2023/03/16 00:52:26;;;;;;;;;;;;;;;11.09;83.64;101573.03;4993863;28;19921;-53
2023/03/16 00:54:52;;;;;;;;;;;;;;;11.24;83.20;101567.72;4990945;28;19918;-52
2023/03/16 00:57:20;;;;;;;;;;;;;;;11.14;83.30;101561.81;4987684;28;19913;-53
2023/03/16 00:59:46;;;;;;;;;;;;;;;11.22;83.76;101559.03;4998488;28;20870;-54
2023/03/16 01:02:13;;;;;;;;;;;;;;;11.12;84.45;101559.28;4991742;28;19914;-53
2023/03/16 01:04:41;;;;;;;;;;;;;;;11.35;84.21;101560.28;4977546;28;19970;-55
2023/03/16 01:07:07;;;;;;;;;;;;;;;11.69;82.34;101550.84;4991834;28;19914;-50
2023/03/16 01:09:35;;;;;;;;;;;;;;;11.48;83.20;101547.91;4983902;28;20025;-55
2023/03/16 01:12:04;;;;;;;;;;;;;;;11.33;84.62;101547.06;4989440;28;19973;-52
2023/03/16 01:14:29;;;;;;;;;;;;;;;11.60;84.41;101531.34;4994780;28;19945;-52
2023/03/16 01:16:55;;;;;;;;;;;;;;;11.27;85.62;101540.56;4988295;28;19918;-52
2023/03/16 01:19:21;;;;;;;;;;;;;;;11.44;85.36;101532.38;5005004;28;20001;-55
2023/03/16 01:21:47;;;;;;;;;;;;;;;11.29;84.29;101533.19;4995854;28;19910;-52
2023/03/16 01:24:13;;;;;;;;;;;;;;;11.56;84.42;101527.38;4987604;28;19922;-52
2023/03/16 01:26:39;;;;;;;;;;;;;;;11.37;85.20;101526.91;4966778;28;19965;-50
2023/03/16 01:29:04;;;;;;;;;;;;;;;11.15;86.72;101523.31;4996226;28;19917;-50
2023/03/16 01:31:30;;;;;;;;;;;;;;;11.18;86.26;101520.25;4998799;28;19940;-55
2023/03/16 01:33:57;;;;;;;;;;;;;;;11.11;88.62;101516.66;4986126;28;19965;-52
2023/03/16 01:36:26;;;;;;;;;;;;;;;11.25;87.26;101515.81;4979586;28;19924;-51
2023/03/16 01:39:02;;;;;;;;;;;;;;;11.36;86.85;101517.22;4989071;28;19918;-53
2023/03/16 01:41:33;;;;;;;;;;;;;;;10.96;89.49;101504.06;4972774;28;20000;-52
2023/03/16 01:43:59;;;;;;;;;;;;;;;10.99;89.30;101509.06;5003048;28;19906;-54
2023/03/16 01:46:27;;;;;;;;;;;;;;;11.13;88.98;101498.56;4984091;28;19918;-52
2023/03/16 01:48:57;;;;;;;;;;;;;;;11.42;87.98;101491.56;4998769;28;20354;-52
2023/03/16 01:51:34;;;;;;;;;;;;;;;10.97;88.85;101495.03;4993055;28;19918;-52
2023/03/16 01:54:03;;;;;;;;;;;;;;;11.37;87.36;101504.69;4989396;28;19915;-52
2023/03/16 01:56:33;;;;;;;;;;;;;;;11.56;87.43;101508.63;4998125;28;19949;-54
2023/03/16 01:59:01;;;;;;;;;;;;;;;11.08;89.13;101490.25;4988161;28;19943;-50
2023/03/16 02:01:27;;;;;;;;;;;;;;;11.05;90.39;101492.25;4972435;28;19921;-51
2023/03/16 02:04:06;;;;;;;;;;;;;;;11.34;88.15;101492.47;5002606;28;19913;-52
2023/03/16 02:06:33;;;;;;;;;;;;;;;11.46;87.98;101498.19;4987807;28;19914;-54
2023/03/16 02:09:00;;;;;;;;;;;;;;;11.10;88.79;101485.56;4988295;28;19939;-49
2023/03/16 02:11:27;;;;;;;;;;;;;;;11.12;90.42;101481.66;4985676;28;19944;-51
2023/03/16 02:14:08;;;;;;;;;;;;;;;11.30;87.90;101483.16;4993095;28;20792;-52
2023/03/16 02:16:33;;;;;;;;;;;;;;;11.39;87.58;101476.69;5006407;28;19926;-54
2023/03/16 02:18:59;;;;;;;;;;;;;;;11.57;87.53;101473.63;4982145;28;19922;-53
2023/03/16 02:21:33;;;;;;;;;;;;;;;11.57;87.38;101468.28;4971424;28;19935;-51
2023/03/16 02:24:02;;;;;;;;;;;;;;;11.16;89.15;101463.41;4979944;28;19985;-51
2023/03/16 02:26:34;;;;;;;;;;;;;;;11.14;90.48;101462.75;4987868;28;19914;-52
2023/03/16 02:29:03;;;;;;;;;;;;;;;11.09;91.32;101465.16;4996905;28;19946;-49
2023/03/16 02:31:30;;;;;;;;;;;;;;;11.72;88.83;101462.91;4990607;28;19918;-52
2023/03/16 02:33:57;;;;;;;;;;;;;;;11.38;89.45;101464.31;4980548;28;19926;-51
2023/03/16 02:36:22;;;;;;;;;;;;;;;11.38;91.10;101463.50;4988868;28;19918;-50
2023/03/16 02:38:48;;;;;;;;;;;;;;;11.43;91.04;101458.41;5001235;28;19929;-51
2023/03/16 02:41:17;;;;;;;;;;;;;;;11.23;91.03;101456.28;4994786;28;19989;-52
2023/03/16 02:43:54;;;;;;;;;;;;;;;11.42;92.28;101454.06;4996020;28;19922;-55
2023/03/16 02:46:26;;;;;;;;;;;;;;;11.17;94.51;101455.16;5009803;28;19914;-52
2023/03/16 02:49:09;;;;;;;;;;;;;;;11.24;95.23;101463.28;4987882;28;19914;-49
2023/03/16 02:51:36;;;;;;;;;;;;;;;10.96;96.40;101450.53;4990553;28;20359;-51
2023/03/16 02:54:02;;;;;;;;;;;;;;;11.22;96.69;101461.84;5000126;28;19945;-52
2023/03/16 02:56:30;;;;;;;;;;;;;;;11.19;96.04;101466.53;4991826;28;19939;-52
2023/03/16 02:58:56;;;;;;;;;;;;;;;10.97;98.24;101468.25;5028915;28;19921;-53
2023/03/16 03:01:22;;;;;;;;;;;;;;;11.04;98.03;101473.72;4997280;28;19914;-51
2023/03/16 03:03:48;;;;;;;;;;;;;;;10.96;100.00;101463.94;5002460;28;19948;-54
2023/03/16 03:06:13;;;;;;;;;;;;;;;10.93;99.32;101466.13;4989728;28;19932;-51
2023/03/16 03:08:38;;;;;;;;;;;;;;;11.15;98.86;101469.75;5000219;28;19938;-53
2023/03/16 03:11:04;;;;;;;;;;;;;;;10.84;100.00;101476.06;4986448;28;19958;-51
2023/03/16 03:13:30;;;;;;;;;;;;;;;11.07;100.00;101467.16;4995232;28;19925;-50
2023/03/16 03:15:56;;;;;;;;;;;;;;;10.93;100.00;101458.94;4997881;28;19949;-50
2023/03/16 03:18:24;;;;;;;;;;;;;;;11.18;100.00;101451.47;5004845;28;19914;-55
2023/03/16 03:20:50;;;;;;;;;;;;;;;11.14;100.00;101454.72;4998169;28;19914;-51
2023/03/16 03:23:16;;;;;;;;;;;;;;;11.16;100.00;101450.81;4986004;28;19998;-53
2023/03/16 03:25:41;;;;;;;;;;;;;;;11.28;100.00;101443.16;4983688;28;19921;-52
2023/03/16 03:28:07;;;;;;;;;;;;;;;10.87;100.00;101436.41;4985743;28;19918;-50
2023/03/16 03:30:32;;;;;;;;;;;;;;;11.10;100.00;101438.19;4982177;28;19922;-51
2023/03/16 03:32:58;;;;;;;;;;;;;;;11.06;100.00;101439.56;4982487;28;19932;-49
2023/03/16 03:35:23;;;;;;;;;;;;;;;11.05;100.00;101430.69;5002653;28;19913;-51
2023/03/16 03:37:49;;;;;;;;;;;;;;;10.75;100.00;101428.00;4967455;28;19918;-48
2023/03/16 03:40:16;;;;;;;;;;;;;;;10.89;100.00;101429.03;4966392;28;19918;-52
2023/03/16 03:42:45;;;;;;;;;;;;;;;10.92;100.00;101425.16;4962710;28;19914;-50
2023/03/16 03:45:11;;;;;;;;;;;;;;;10.96;100.00;101418.44;4965120;28;19914;-52
2023/03/16 03:47:38;;;;;;;;;;;;;;;10.91;100.00;101420.84;4968270;28;19910;-51
2023/03/16 03:50:04;;;;;;;;;;;;;;;10.69;100.00;101418.03;4962711;28;19944;-53
2023/03/16 03:52:34;;;;;;;;;;;;;;;10.95;100.00;101414.09;4964800;28;20020;-51
2023/03/16 03:54:59;;;;;;;;;;;;;;;10.99;100.00;101414.56;4967001;28;19922;-51
2023/03/16 03:57:24;;;;;;;;;;;;;;;10.97;100.00;101414.75;4971233;28;19937;-51
2023/03/16 03:59:50;;;;;;;;;;;;;;;10.89;100.00;101425.53;4968774;28;19945;-53
2023/03/16 04:02:18;;;;;;;;;;;;;;;11.12;100.00;101416.59;4967497;28;19925;-52
2023/03/16 04:04:49;;;;;;;;;;;;;;;10.96;100.00;101412.25;4969676;28;19915;-54
2023/03/16 04:07:14;;;;;;;;;;;;;;;10.67;100.00;101413.88;4969327;28;19917;-54
2023/03/16 04:09:41;;;;;;;;;;;;;;;11.04;100.00;101412.16;4969471;28;19914;-49
2023/03/16 04:12:15;;;;;;;;;;;;;;;10.89;100.00;101412.16;4973664;28;19926;-54
2023/03/16 04:14:42;;;;;;;;;;;;;;;11.03;100.00;101410.50;4970198;28;19914;-53
2023/03/16 04:17:08;;;;;;;;;;;;;;;10.79;100.00;101406.22;4968457;28;20059;-50
2023/03/16 04:19:37;;;;;;;;;;;;;;;10.64;100.00;101408.88;4973823;28;19918;-53
2023/03/16 04:22:07;;;;;;;;;;;;;;;10.86;100.00;101404.50;4969256;28;19947;-52
2023/03/16 04:24:34;;;;;;;;;;;;;;;10.84;100.00;101403.81;4968095;28;19914;-51
2023/03/16 04:27:01;;;;;;;;;;;;;;;10.85;100.00;101405.53;4966640;28;19945;-53
2023/03/16 04:29:27;;;;;;;;;;;;;;;10.69;100.00;101398.47;4970032;28;19915;-51
2023/03/16 04:31:56;;;;;;;;;;;;;;;10.56;100.00;101394.59;4973566;28;19958;-52
2023/03/16 04:34:23;;;;;;;;;;;;;;;10.64;100.00;101399.03;4967192;28;19982;-49
2023/03/16 04:36:53;;;;;;;;;;;;;;;10.49;100.00;101395.50;4966255;28;19931;-52
2023/03/16 04:39:19;;;;;;;;;;;;;;;10.82;100.00;101387.13;4965796;28;19921;-50
2023/03/16 04:41:45;;;;;;;;;;;;;;;11.09;100.00;101391.03;4967652;28;19926;-51
2023/03/16 04:44:17;;;;;;;;;;;;;;;10.86;100.00;101389.25;4969436;28;19914;-51
2023/03/16 04:46:42;;;;;;;;;;;;;;;10.76;100.00;101392.19;4971231;28;19914;-55
2023/03/16 04:49:09;;;;;;;;;;;;;;;10.65;100.00;101390.00;4969775;28;19925;-52
2023/03/16 04:51:39;;;;;;;;;;;;;;;10.37;100.00;101385.19;4969411;28;19918;-52
2023/03/16 04:54:07;;;;;;;;;;;;;;;10.73;100.00;101381.88;4974606;28;19915;-52
2023/03/16 04:56:36;;;;;;;;;;;;;;;10.99;100.00;101375.25;4973186;28;19919;-55
2023/03/16 04:59:07;;;;;;;;;;;;;;;10.54;100.00;101367.19;4972480;28;19914;-48
2023/03/16 05:01:45;;;;;;;;;;;;;;;10.82;100.00;101371.06;4972179;28;19956;-54
2023/03/16 05:04:12;;;;;;;;;;;;;;;10.49;100.00;101380.25;4969615;28;20648;-52
2023/03/16 05:06:38;;;;;;;;;;;;;;;10.51;100.00;101378.25;4972739;28;19914;-51
2023/03/16 05:09:07;;;;;;;;;;;;;;;10.61;100.00;101396.72;4970792;28;19918;-51
2023/03/16 05:11:35;;;;;;;;;;;;;;;10.70;100.00;101374.22;4972654;28;19918;-51
2023/03/16 05:14:02;;;;;;;;;;;;;;;10.69;100.00;101372.56;4964581;28;19914;-52
2023/03/16 05:16:32;;;;;;;;;;;;;;;10.97;100.00;101379.13;4970708;28;19926;-50
2023/03/16 05:18:58;;;;;;;;;;;;;;;10.73;100.00;101375.72;4968392;28;19970;-54
2023/03/16 05:21:27;;;;;;;;;;;;;;;10.70;100.00;101376.91;4989361;28;20003;-52
2023/03/16 05:23:58;;;;;;;;;;;;;;;11.00;100.00;101376.91;4973315;28;19915;-51
2023/03/16 05:26:26;;;;;;;;;;;;;;;10.72;100.00;101384.72;4969574;28;19941;-53
2023/03/16 05:28:53;;;;;;;;;;;;;;;10.71;100.00;101373.19;4971236;28;19915;-52
2023/03/16 05:31:25;;;;;;;;;;;;;;;10.81;100.00;101372.94;4955851;28;19949;-49
2023/03/16 05:33:53;;;;;;;;;;;;;;;10.82;100.00;101373.75;4968823;28;19914;-53
2023/03/16 05:36:19;;;;;;;;;;;;;;;10.70;100.00;101365.34;4971960;28;19944;-54
2023/03/16 05:38:49;;;;;;;;;;;;;;;10.93;100.00;101372.47;4976570;28;19922;-53
2023/03/16 05:41:25;;;;;;;;;;;;;;;10.85;100.00;101373.41;5006852;28;19914;-52
2023/03/16 05:44:05;;;;;;;;;;;;;;;10.95;100.00;101373.09;5020774;28;19918;-48
2023/03/16 05:46:52;;;;;;;;;;;;;;;10.87;100.00;101371.38;4976679;28;19993;-50
2023/03/16 05:49:18;;;;;;;;;;;;;;;10.59;100.00;101366.63;5014173;28;19915;-55
2023/03/16 05:51:44;;;;;;;;;;;;;;;10.71;100.00;101353.63;4992726;28;19918;-51
2023/03/16 05:54:10;;;;;;;;;;;;;;;11.23;100.00;101365.25;5002836;28;19928;-51
2023/03/16 05:56:42;;;;;;;;;;;;;;;11.04;100.00;101363.97;4990673;28;19914;-48
2023/03/16 05:59:08;;;;;;;;;;;;;;;10.84;100.00;101367.22;4986358;28;19957;-54
2023/03/16 06:01:34;;;;;;;;;;;;;;;10.98;100.00;101365.53;4976102;28;19922;-51
2023/03/16 06:04:02;;;;;;;;;;;;;;;10.96;100.00;101369.44;4987370;28;19946;-51
2023/03/16 06:06:31;;;;;;;;;;;;;;;11.00;100.00;101354.66;4974322;28;19918;-49
2023/03/16 06:09:05;;;;;;;;;;;;;;;10.72;100.00;101360.63;4970890;28;19918;-51
2023/03/16 06:11:31;;;;;;;;;;;;;;;10.96;100.00;101358.75;4972667;28;19994;-50
2023/03/16 06:13:58;;;;;;;;;;;;;;;10.85;100.00;101357.34;4982749;28;19913;-50
2023/03/16 06:16:24;;;;;;;;;;;;;;;10.95;100.00;101357.06;4979379;28;19971;-52
2023/03/16 06:18:50;;;;;;;;;;;;;;;11.10;100.00;101359.75;4983067;28;19914;-55
2023/03/16 06:21:16;;;;;;;;;;;;;;;10.96;100.00;101359.56;4991446;28;19981;-50
2023/03/16 06:23:41;;;;;;;;;;;;;;;11.12;100.00;101352.34;4966218;28;19918;-53
2023/03/16 06:26:07;;;;;;;;;;;;;;;11.20;100.00;101349.56;4969080;28;21378;-53
2023/03/16 06:28:35;;;;;;;;;;;;;;;11.00;100.00;101347.47;4961458;28;19914;-53
2023/03/16 06:31:00;;;;;;;;;;;;;;;11.40;100.00;101338.25;4982914;28;19963;-50
2023/03/16 06:33:31;;;;;;;;;;;;;;;11.47;100.00;101344.50;4976450;28;19918;-48
2023/03/16 06:35:56;;;;;;;;;;;;;;;11.12;100.00;101344.31;4979394;28;19926;-52
2023/03/16 06:38:32;;;;;;;;;;;;;;;11.10;100.00;101349.03;4963682;28;19918;-51
2023/03/16 06:41:18;;;;;;;;;;;;;;;11.43;100.00;101340.56;4986998;28;19914;-51
2023/03/16 06:43:45;;;;;;;;;;;;;;;11.13;100.00;101340.63;4969525;28;19921;-50
2023/03/16 06:46:10;;;;;;;;;;;;;;;10.97;100.00;101345.16;4973023;28;19919;-50
2023/03/16 06:48:36;;;;;;;;;;;;;;;11.04;100.00;101348.75;4984385;28;19914;-52
2023/03/16 06:51:02;;;;;;;;;;;;;;;11.12;100.00;101352.34;4987084;28;19922;-54
2023/03/16 06:53:28;;;;;;;;;;;;;;;11.49;100.00;101342.47;4983580;28;19918;-53
2023/03/16 06:55:55;;;;;;;;;;;;;;;11.07;100.00;101352.06;4994247;28;19980;-53
2023/03/16 06:58:21;;;;;;;;;;;;;;;10.89;100.00;101337.22;4971232;28;19915;-54
2023/03/16 07:00:47;;;;;;;;;;;;;;;11.15;100.00;101349.31;4986709;28;19952;-51
2023/03/16 07:03:12;;;;;;;;;;;;;;;11.16;100.00;101332.22;4993054;28;19963;-55
2023/03/16 07:05:45;;;;;;;;;;;;;;;11.01;100.00;101340.28;4978315;28;19951;-54
2023/03/16 07:08:11;;;;;;;;;;;;;;;11.16;100.00;101322.31;4992541;28;19929;-51
2023/03/16 07:10:37;;;;;;;;;;;;;;;10.98;100.00;101325.41;4976094;28;20032;-50
2023/03/16 07:13:03;;;;;;;;;;;;;;;11.16;100.00;101316.97;4987501;28;19930;-53
2023/03/16 07:15:28;;;;;;;;;;;;;;;11.06;100.00;101308.41;4995697;28;19921;-52
2023/03/16 07:17:55;;;;;;;;;;;;;;;11.13;100.00;101329.91;4987515;28;19914;-53
2023/03/16 07:20:21;;;;;;;;;;;;;;;11.35;100.00;101308.56;4969083;28;19945;-53
2023/03/16 07:22:46;;;;;;;;;;;;;;;11.14;100.00;101308.31;4986491;28;19964;-55
2023/03/16 07:25:12;;;;;;;;;;;;;;;11.18;100.00;101298.06;4984785;28;19934;-52
2023/03/16 07:27:45;;;;;;;;;;;;;;;11.22;100.00;101310.03;4978134;28;19932;-54
2023/03/16 07:30:13;;;;;;;;;;;;;;;11.13;100.00;101300.47;4993218;28;19936;-49
2023/03/16 07:32:41;;;;;;;;;;;;;;;11.35;100.00;101304.00;4977695;28;19926;-55
2023/03/16 07:35:09;;;;;;;;;;;;;;;11.52;100.00;101304.59;5023864;28;19960;-56
2023/03/16 07:37:35;;;;;;;;;;;;;;;11.33;100.00;101306.91;5054051;28;19985;-53
2023/03/16 07:40:04;;;;;;;;;;;;;;;11.36;100.00;101315.56;5060797;28;19944;-55
2023/03/16 07:42:30;;;;;;;;;;;;;;;11.18;100.00;101306.91;5067536;28;19924;-51
2023/03/16 07:45:05;;;;;;;;;;;;;;;11.30;100.00;101311.78;5066021;28;19912;-52
2023/03/16 07:47:32;;;;;;;;;;;;;;;11.35;100.00;101316.59;5059902;28;19916;-56
2023/03/16 07:50:04;;;;;;;;;;;;;;;11.38;100.00;101314.34;5067236;28;19929;-56
2023/03/16 07:52:30;;;;;;;;;;;;;;;11.44;100.00;101318.13;5064225;28;19923;-56
2023/03/16 07:54:56;;;;;;;;;;;;;;;11.70;100.00;101308.69;5058607;28;21441;-55
2023/03/16 07:57:22;;;;;;;;;;;;;;;11.68;100.00;101324.97;5063488;28;19935;-53
2023/03/16 07:59:48;;;;;;;;;;;;;;;11.86;100.00;101312.97;5061562;28;19913;-52
2023/03/16 08:02:16;;;;;;;;;;;;;;;11.56;100.00;101310.41;5062820;28;19972;-53
2023/03/16 08:04:42;;;;;;;;;;;;;;;12.04;100.00;101317.91;5060024;28;19948;-55
2023/03/16 08:07:09;;;;;;;;;;;;;;;11.87;100.00;101319.97;5059804;28;19928;-49
2023/03/16 08:10:01;;;;;;;;;;;;;;;11.97;100.00;101315.13;5063216;28;19935;-52
2023/03/16 08:12:36;;;;;;;;;;;;;;;11.70;100.00;101319.41;5059338;28;19921;-51
2023/03/16 08:15:02;;;;;;;;;;;;;;;12.00;100.00;101295.97;5065946;28;19959;-52
2023/03/16 08:17:30;;;;;;;;;;;;;;;11.91;100.00;101292.59;5066705;28;19913;-51
2023/03/16 08:19:57;;;;;;;;;;;;;;;12.18;100.00;101289.34;5046287;28;19913;-52
2023/03/16 08:22:24;;;;;;;;;;;;;;;12.39;100.00;101295.69;5061734;28;19913;-50
2023/03/16 08:24:50;;;;;;;;;;;;;;;12.16;100.00;101278.00;5059234;28;19921;-51
2023/03/16 08:27:19;;;;;;;;;;;;;;;12.22;100.00;101303.19;5048532;28;19940;-53
2023/03/16 08:29:52;;;;;;;;;;;;;;;12.71;100.00;101296.91;5054166;28;19936;-51
2023/03/16 08:32:19;;;;;;;;;;;;;;;12.58;100.00;101302.19;5056064;28;19988;-52
2023/03/16 08:34:46;;;;;;;;;;;;;;;12.80;100.00;101307.47;5052855;28;20000;-48
2023/03/16 08:37:13;;;;;;;;;;;;;;;12.48;100.00;101314.13;5016031;28;20605;-54
2023/03/16 08:39:40;;;;;;;;;;;;;;;12.26;100.00;101320.56;4967924;28;19936;-52
2023/03/16 08:42:09;;;;;;;;;;;;;;;12.75;100.00;101324.16;4972560;28;19914;-52
2023/03/16 08:44:42;;;;;;;;;;;;;;;12.70;100.00;101311.34;4971967;28;19948;-52
2023/03/16 08:47:09;;;;;;;;;;;;;;;12.56;100.00;101320.34;4974419;28;19934;-51
2023/03/16 08:49:36;;;;;;;;;;;;;;;12.83;100.00;101307.06;4968890;28;20002;-54
2023/03/16 08:52:09;;;;;;;;;;;;;;;12.79;100.00;101309.31;4971987;28;19968;-52
2023/03/16 08:54:35;;;;;;;;;;;;;;;12.61;100.00;101316.03;4968957;28;19914;-53
2023/03/16 08:57:01;;;;;;;;;;;;;;;12.84;97.26;101314.09;4968886;28;19919;-52
2023/03/16 08:59:27;;;;;;;;;;;;;;;12.96;96.75;101299.09;4970059;28;19925;-52
2023/03/16 09:01:53;;;;;;;;;;;;;;;13.02;96.83;101290.22;4967559;28;19915;-53
2023/03/16 09:04:20;;;;;;;;;;;;;;;13.06;94.87;101309.47;4968524;28;20002;-49
2023/03/16 09:06:46;;;;;;;;;;;;;;;13.05;94.76;101286.31;4966344;28;19926;-55
2023/03/16 09:09:12;;;;;;;;;;;;;;;12.83;95.61;101291.81;4965356;28;19915;-51
2023/03/16 09:11:37;;;;;;;;;;;;;;;12.80;95.79;101299.41;4969695;28;20001;-52
2023/03/16 09:14:03;;;;;;;;;;;;;;;13.04;94.19;101290.84;4971603;28;19978;-51
2023/03/16 09:16:29;;;;;;;;;;;;;;;12.96;92.82;101282.97;4968812;28;19918;-48
2023/03/16 09:18:56;;;;;;;;;;;;;;;13.05;92.42;101281.75;4969572;28;19921;-49
2023/03/16 09:21:22;;;;;;;;;;;;;;;13.24;91.79;101291.94;4970239;28;19915;-52
2023/03/16 09:23:48;;;;;;;;;;;;;;;12.79;94.01;101278.97;4970526;28;19937;-52
2023/03/16 09:26:14;;;;;;;;;;;;;;;13.41;90.80;101295.09;4973111;28;19914;-54
2023/03/16 09:28:41;;;;;;;;;;;;;;;13.17;91.49;101289.25;4971896;28;19915;-51
2023/03/16 09:31:07;;;;;;;;;;;;;;;13.53;89.91;101281.94;4973811;28;19929;-53
2023/03/16 09:33:34;;;;;;;;;;;;;;;13.71;87.22;101286.69;4968159;28;19919;-50
2023/03/16 09:36:00;;;;;;;;;;;;;;;13.47;87.86;101284.38;4973185;28;19929;-52
2023/03/16 09:38:26;;;;;;;;;;;;;;;13.55;86.81;101286.06;4991962;28;19928;-53
2023/03/16 09:41:01;;;;;;;;;;;;;;;13.42;85.84;101296.75;4985933;28;20936;-50
2023/03/16 09:43:26;;;;;;;;;;;;;;;13.53;85.34;101288.13;4988645;28;19917;-52
2023/03/16 09:46:05;;;;;;;;;;;;;;;13.90;83.76;101285.88;4987124;28;19915;-49
2023/03/16 09:48:32;;;;;;;;;;;;;;;13.86;83.16;101283.81;4982396;28;19918;-53
2023/03/16 09:50:59;;;;;;;;;;;;;;;13.84;82.54;101294.78;4991445;28;19929;-49
2023/03/16 09:53:38;;;;;;;;;;;;;;;14.29;80.05;101301.38;4991938;28;19918;-53
2023/03/16 09:56:14;;;;;;;;;;;;;;;14.07;79.76;101292.72;4990917;28;20220;-54
2023/03/16 09:58:39;;;;;;;;;;;;;;;14.34;78.59;101290.81;4988746;28;19917;-54
2023/03/16 10:01:15;;;;;;;;;;;;;;;14.31;78.11;101299.31;4991038;28;19914;-52
2023/03/16 10:04:00;;;;;;;;;;;;;;;14.87;76.45;101278.28;4987633;28;19918;-51
2023/03/16 10:06:26;;;;;;;;;;;;;;;15.46;73.44;101278.19;4990740;28;20009;-51
2023/03/16 10:09:15;;;;;;;;;;;;;;;15.21;71.50;101265.47;4993293;28;19914;-51
2023/03/16 10:11:44;;;;;;;;;;;;;;;15.25;71.58;101266.72;4980664;28;19925;-52
2023/03/16 10:14:23;;;;;;;;;;;;;;;15.68;69.96;101267.03;4987659;28;19915;-52
2023/03/16 10:16:53;;;;;;;;;;;;;;;15.89;68.63;101247.81;4989933;28;19914;-52
2023/03/16 10:19:40;;;;;;;;;;;;;;;16.57;66.16;101257.91;4989937;28;19971;-54
2023/03/16 10:22:16;;;;;;;;;;;;;;;16.91;63.43;101263.75;4988353;28;19914;-55
2023/03/16 10:24:51;;;;;;;;;;;;;;;17.12;62.46;101253.53;4989646;28;19945;-50
2023/03/16 10:27:19;;;;;;;;;;;;;;;17.81;61.87;101263.94;4988252;28;19940;-50
2023/03/16 10:29:46;;;;;;;;;;;;;;;18.05;59.32;101264.78;4986463;28;19914;-51
2023/03/16 10:32:12;;;;;;;;;;;;;;;18.34;59.11;101264.91;4989740;28;19972;-50
2023/03/16 10:34:38;;;;;;;;;;;;;;;18.32;58.82;101258.06;4984561;28;19914;-51
2023/03/16 10:37:04;;;;;;;;;;;;;;;18.08;57.61;101239.16;4988724;28;19922;-50
2023/03/16 10:39:35;;;;;;;;;;;;;;;18.09;57.35;101261.59;4989928;28;19914;-52
2023/03/16 10:42:01;;;;;;;;;;;;;;;18.27;57.65;101256.06;4988669;28;19930;-50
2023/03/16 10:44:28;;;;;;;;;;;;;;;18.21;56.02;101262.44;4988728;28;19914;-52
2023/03/16 10:47:03;;;;;;;;;;;;;;;18.51;56.04;101261.44;4984548;28;19918;-56
2023/03/16 10:49:38;;;;;;;;;;;;;;;18.49;55.80;101253.59;4984869;28;20005;-55
2023/03/16 10:52:07;;;;;;;;;;;;;;;18.83;54.26;101233.09;4989329;28;19918;-53
2023/03/16 10:54:36;;;;;;;;;;;;;;;18.68;54.37;101233.63;4986270;28;19925;-56
2023/03/16 10:57:21;;;;;;;;;;;;;;;18.60;54.96;101222.13;4986186;28;19925;-53
2023/03/16 10:59:48;;;;;;;;;;;;;;;18.53;54.13;101217.91;4991154;28;19927;-54
2023/03/16 11:02:15;;;;;;;;;;;;;;;17.98;55.16;101245.13;4992169;28;19914;-56
2023/03/16 11:04:40;;;;;;;;;;;;;;;17.92;54.31;101227.94;4993509;28;19923;-55
2023/03/16 11:07:08;;;;;;;;;;;;;;;17.54;54.66;101234.63;4993306;28;19918;-50
2023/03/16 11:09:35;;;;;;;;;;;;;;;17.38;54.77;101217.19;4991376;28;19977;-55
2023/03/16 11:12:11;;;;;;;;;;;;;;;17.02;55.33;101198.16;4991597;28;19937;-51
2023/03/16 11:14:42;;;;;;;;;;;;;;;17.52;56.66;101204.25;4989851;28;19940;-50
2023/03/16 11:17:11;;;;;;;;;;;;;;;17.49;56.11;101212.84;4980772;28;19914;-48
2023/03/16 11:19:58;;;;;;;;;;;;;;;17.68;56.25;101210.88;4996842;28;19918;-55
2023/03/16 11:22:24;;;;;;;;;;;;;;;17.81;55.89;101220.66;4990267;28;19944;-50
2023/03/16 11:24:50;;;;;;;;;;;;;;;17.61;56.50;101196.63;4986038;28;19925;-50
2023/03/16 11:27:32;;;;;;;;;;;;;;;17.66;56.53;101204.91;4990802;28;19922;-53
2023/03/16 11:29:58;;;;;;;;;;;;;;;17.54;55.87;101191.38;4988178;28;19923;-48
2023/03/16 11:32:29;;;;;;;;;;;;;;;17.36;55.93;101196.84;4983306;28;19918;-55
2023/03/16 11:34:55;;;;;;;;;;;;;;;18.03;55.04;101187.63;4991414;28;19914;-50
2023/03/16 11:37:27;;;;;;;;;;;;;;;17.71;55.53;101172.56;4992971;28;19928;-52
2023/03/16 11:40:14;;;;;;;;;;;;;;;17.86;55.24;101180.19;4989227;28;19924;-55
2023/03/16 11:42:44;;;;;;;;;;;;;;;18.12;54.36;101180.78;4984629;28;19914;-53
2023/03/16 11:45:28;;;;;;;;;;;;;;;18.51;54.59;101165.88;4999644;28;19914;-53
2023/03/16 11:47:57;;;;;;;;;;;;;;;18.71;53.12;101168.13;4986077;28;19946;-52
2023/03/16 11:50:28;;;;;;;;;;;;;;;18.17;53.33;101161.13;4989218;28;19941;-51
2023/03/16 11:52:54;;;;;;;;;;;;;;;18.61;53.25;101180.44;4987090;28;19918;-52
2023/03/16 11:55:23;;;;;;;;;;;;;;;18.97;53.05;101169.44;4991112;28;20456;-53
2023/03/16 11:57:51;;;;;;;;;;;;;;;19.09;50.98;101173.97;4984170;28;19925;-55
2023/03/16 12:00:17;;;;;;;;;;;;;;;18.93;49.84;101157.44;4990100;28;19918;-49
2023/03/16 12:02:43;;;;;;;;;;;;;;;19.34;49.06;101157.34;4987723;28;19938;-50
2023/03/16 12:05:18;;;;;;;;;;;;;;;19.55;48.83;101153.03;4988755;28;19910;-54
2023/03/16 12:08:04;;;;;;;;;;;;;;;19.83;48.13;101147.75;4991515;28;19921;-54
2023/03/16 12:10:40;;;;;;;;;;;;;;;20.34;47.12;101166.63;4990487;28;19949;-53
2023/03/16 12:13:11;;;;;;;;;;;;;;;20.06;47.47;101158.41;4991968;28;19978;-54
2023/03/16 12:15:58;;;;;;;;;;;;;;;20.31;46.22;101172.56;4990572;28;19914;-53
2023/03/16 12:18:36;;;;;;;;;;;;;;;21.19;46.91;101160.69;4983204;28;19914;-53
2023/03/16 12:21:04;;;;;;;;;;;;;;;22.31;45.29;101155.41;4987460;28;19910;-52
2023/03/16 12:23:36;;;;;;;;;;;;;;;22.81;43.30;101160.44;4988770;28;19914;-54
2023/03/16 12:26:02;;;;;;;;;;;;;;;23.78;42.32;101138.88;4993608;28;19977;-53
2023/03/16 12:28:28;;;;;;;;;;;;;;;23.91;39.91;101165.56;4982274;28;19988;-53
2023/03/16 12:31:00;;;;;;;;;;;;;;;23.14;39.04;101147.38;4989865;28;19914;-56
2023/03/16 12:33:34;;;;;;;;;;;;;;;23.22;39.28;101132.38;4991491;28;19918;-55
2023/03/16 12:36:09;;;;;;;;;;;;;;;24.18;38.12;101133.53;4995390;28;20004;-56
2023/03/16 12:38:36;;;;;;;;;;;;;;;23.34;38.82;101129.38;4992167;28;19993;-56
2023/03/16 12:41:20;;;;;;;;;;;;;;;23.86;37.61;101129.25;4987094;28;19914;-52